createdAt,value
2018-06-10T00:00:12.199Z,70.00
2018-06-10T00:00:43.938Z,70.10
2018-06-10T00:01:15.714Z,69.70
2018-06-10T00:01:47.445Z,69.80
2018-06-10T00:02:19.290Z,69.50
2018-06-10T00:02:51.012Z,69.70
2018-06-10T00:03:22.783Z,69.00
2018-06-10T00:03:54.498Z,69.30
2018-06-10T00:04:26.237Z,70.40
2018-06-10T00:04:57.997Z,69.80
2018-06-10T00:06:01.745Z,70.20
2018-06-10T00:06:33.474Z,69.90
2018-06-10T00:07:05.194Z,69.70
2018-06-10T00:08:08.960Z,69.60
2018-06-10T00:08:40.793Z,69.90
2018-06-10T00:09:12.484Z,69.40
2018-06-10T00:09:44.394Z,69.70
2018-06-10T00:10:16.133Z,69.80
2018-06-10T00:10:47.852Z,69.80
2018-06-10T00:11:19.570Z,69.70
2018-06-10T00:11:51.335Z,69.50
2018-06-10T00:12:23.042Z,69.60
2018-06-10T00:12:54.767Z,69.50
2018-06-10T00:13:26.539Z,69.50
2018-06-10T00:13:58.488Z,69.70
2018-06-10T00:14:30.385Z,69.60
2018-06-10T00:15:02.131Z,69.70
2018-06-10T00:15:33.898Z,69.70
2018-06-10T00:16:05.639Z,69.70
2018-06-10T00:16:37.369Z,69.70
2018-06-10T00:17:09.102Z,69.80
2018-06-10T00:17:40.825Z,69.80
2018-06-10T00:18:12.558Z,69.70
2018-06-10T00:18:44.310Z,69.70
2018-06-10T00:19:16.026Z,69.70
2018-06-10T00:19:47.775Z,69.70
2018-06-10T00:20:19.515Z,69.80
2018-06-10T00:20:51.242Z,69.60
2018-06-10T00:21:23.005Z,69.60
2018-06-10T00:21:54.755Z,69.70
2018-06-10T00:22:26.492Z,69.50
2018-06-10T00:22:58.216Z,69.50
2018-06-10T00:23:29.954Z,69.40
2018-06-10T00:24:01.733Z,69.70
2018-06-10T00:24:33.461Z,69.70
2018-06-10T00:25:05.191Z,69.60
2018-06-10T00:25:36.914Z,69.60
2018-06-10T00:26:08.660Z,69.70
2018-06-10T00:26:40.396Z,69.70
2018-06-10T00:27:12.113Z,69.60
2018-06-10T00:27:43.860Z,69.60
2018-06-10T00:28:47.592Z,69.80
2018-06-10T00:29:19.322Z,69.70
2018-06-10T00:29:51.042Z,69.60
2018-06-10T00:30:22.769Z,69.60
2018-06-10T00:30:54.498Z,69.60
2018-06-10T00:31:26.247Z,70.20
2018-06-10T00:31:58.030Z,69.90
2018-06-10T00:32:29.758Z,69.80
2018-06-10T00:33:01.495Z,69.80
2018-06-10T00:33:33.217Z,70.10
2018-06-10T00:34:04.960Z,69.90
2018-06-10T00:34:36.955Z,69.70
2018-06-10T00:35:08.729Z,69.90
2018-06-10T00:35:40.449Z,69.90
2018-06-10T00:36:12.186Z,69.90
2018-06-10T00:36:43.930Z,69.60
2018-06-10T00:37:15.905Z,69.70
2018-06-10T00:37:47.659Z,69.60
2018-06-10T00:38:19.613Z,69.70
2018-06-10T00:38:51.377Z,69.70
2018-06-10T00:39:23.122Z,69.70
2018-06-10T00:39:54.851Z,69.60
2018-06-10T00:40:26.573Z,69.60
2018-06-10T00:40:58.316Z,69.60
2018-06-10T00:41:30.059Z,69.60
2018-06-10T00:42:01.818Z,69.50
2018-06-10T00:42:33.542Z,69.50
2018-06-10T00:43:05.274Z,69.40
2018-06-10T00:43:36.994Z,69.40
2018-06-10T00:44:08.727Z,69.40
2018-06-10T00:44:40.512Z,69.30
2018-06-10T00:45:12.212Z,69.20
2018-06-10T00:45:43.941Z,70.00
2018-06-10T00:46:15.706Z,69.30
2018-06-10T00:46:47.430Z,69.30
2018-06-10T00:47:19.167Z,69.30
2018-06-10T00:47:50.882Z,69.30
2018-06-10T00:48:22.594Z,69.30
2018-06-10T00:48:54.333Z,69.30
2018-06-10T00:49:26.078Z,69.20
2018-06-10T00:49:57.812Z,69.00
2018-06-10T00:50:29.722Z,69.10
2018-06-10T00:51:01.520Z,69.20
2018-06-10T00:51:33.285Z,69.40
2018-06-10T00:52:05.016Z,69.30
2018-06-10T00:52:36.784Z,69.40
2018-06-10T00:53:08.666Z,69.20
2018-06-10T00:53:40.390Z,69.30
2018-06-10T00:54:12.114Z,69.20
2018-06-10T00:54:44.044Z,69.20
2018-06-10T00:55:15.802Z,69.20
2018-06-10T00:56:19.574Z,69.00
2018-06-10T00:56:51.334Z,68.90
2018-06-10T00:57:23.043Z,68.40
2018-06-10T00:57:54.770Z,69.10
2018-06-10T00:58:26.542Z,69.00
2018-06-10T00:58:58.369Z,69.20
2018-06-10T00:59:30.090Z,68.60
2018-06-10T01:00:01.831Z,69.00
2018-06-10T01:00:33.537Z,69.00
2018-06-10T01:01:05.264Z,69.10
2018-06-10T01:01:36.993Z,69.00
2018-06-10T01:02:08.726Z,68.90
2018-06-10T01:02:40.438Z,68.80
2018-06-10T01:03:12.167Z,68.90
2018-06-10T01:03:43.900Z,68.60
2018-06-10T01:04:15.641Z,68.60
2018-06-10T01:04:47.357Z,68.40
2018-06-10T01:05:19.082Z,69.00
2018-06-10T01:05:50.821Z,68.80
2018-06-10T01:06:22.575Z,68.70
2018-06-10T01:06:54.305Z,68.80
2018-06-10T01:07:26.353Z,68.70
2018-06-10T01:07:58.112Z,68.80
2018-06-10T01:08:29.847Z,68.90
2018-06-10T01:09:01.702Z,68.80
2018-06-10T01:09:33.624Z,68.80
2018-06-10T01:10:05.371Z,68.60
2018-06-10T01:10:37.116Z,68.70
2018-06-10T01:11:08.873Z,68.80
2018-06-10T01:11:40.595Z,68.80
2018-06-10T01:12:12.360Z,68.70
2018-06-10T01:12:44.315Z,68.60
2018-06-10T01:13:16.085Z,68.60
2018-06-10T01:13:47.850Z,68.50
2018-06-10T01:14:19.581Z,68.50
2018-06-10T01:14:51.312Z,68.50
2018-06-10T01:15:23.068Z,68.50
2018-06-10T01:15:54.843Z,68.40
2018-06-10T01:16:58.624Z,68.40
2018-06-10T01:17:30.392Z,68.40
2018-06-10T01:18:02.121Z,68.30
2018-06-10T01:18:33.871Z,68.30
2018-06-10T01:19:05.617Z,69.00
2018-06-10T01:19:37.380Z,68.30
2018-06-10T01:20:09.123Z,67.60
2018-06-10T01:20:41.033Z,68.10
2018-06-10T01:21:13.043Z,68.30
2018-06-10T01:21:44.764Z,68.00
2018-06-10T01:22:16.517Z,68.00
2018-06-10T01:22:48.284Z,68.10
2018-06-10T01:23:20.052Z,68.30
2018-06-10T01:23:51.808Z,68.30
2018-06-10T01:24:23.521Z,68.30
2018-06-10T01:24:55.272Z,68.20
2018-06-10T01:25:27.133Z,68.30
2018-06-10T01:25:58.854Z,68.30
2018-06-10T01:26:30.634Z,68.20
2018-06-10T01:27:02.401Z,68.50
2018-06-10T01:27:34.145Z,68.00
2018-06-10T01:28:05.921Z,68.50
2018-06-10T01:28:37.677Z,68.30
2018-06-10T01:29:09.418Z,68.10
2018-06-10T01:29:41.218Z,68.50
2018-06-10T01:30:12.975Z,68.50
2018-06-10T01:30:44.716Z,68.60
2018-06-10T01:31:16.495Z,68.40
2018-06-10T01:31:48.238Z,68.60
2018-06-10T01:32:20.015Z,68.50
2018-06-10T01:32:52.029Z,68.60
2018-06-10T01:33:23.754Z,68.50
2018-06-10T01:33:55.693Z,68.50
2018-06-10T01:34:27.626Z,68.50
2018-06-10T01:34:59.410Z,69.10
2018-06-10T01:35:31.301Z,68.30
2018-06-10T01:36:03.094Z,68.30
2018-06-10T01:36:34.877Z,68.30
2018-06-10T01:37:06.949Z,68.30
2018-06-10T01:37:38.706Z,68.20
2018-06-10T01:38:10.499Z,68.20
2018-06-10T01:38:42.215Z,68.20
2018-06-10T01:39:13.970Z,68.20
2018-06-10T01:39:45.817Z,68.20
2018-06-10T01:40:17.794Z,68.10
2018-06-10T01:40:49.520Z,68.20
2018-06-10T01:41:21.233Z,68.20
2018-06-10T01:41:52.993Z,68.10
2018-06-10T01:42:24.745Z,68.20
2018-06-10T01:42:56.482Z,68.10
2018-06-10T01:43:28.242Z,68.10
2018-06-10T01:43:59.967Z,68.10
2018-06-10T01:44:31.702Z,68.10
2018-06-10T01:45:03.449Z,68.20
2018-06-10T01:46:07.439Z,67.80
2018-06-10T01:46:39.201Z,68.10
2018-06-10T01:47:11.181Z,68.10
2018-06-10T01:47:42.906Z,68.90
2018-06-10T01:48:14.654Z,68.10
2018-06-10T01:48:46.421Z,68.10
2018-06-10T01:49:18.149Z,68.20
2018-06-10T01:49:49.978Z,68.00
2018-06-10T01:50:21.714Z,68.00
2018-06-10T01:50:53.457Z,68.00
2018-06-10T01:51:25.208Z,67.90
2018-06-10T01:51:57.115Z,67.80
2018-06-10T01:52:28.870Z,67.80
2018-06-10T01:53:00.876Z,67.80
2018-06-10T01:53:32.765Z,67.80
2018-06-10T01:54:04.722Z,67.70
2018-06-10T01:54:36.672Z,67.70
2018-06-10T01:55:08.511Z,67.70
2018-06-10T01:55:40.277Z,67.70
2018-06-10T01:56:12.041Z,67.70
2018-06-10T01:56:43.741Z,68.40
2018-06-10T01:57:15.492Z,67.60
2018-06-10T01:57:47.261Z,67.50
2018-06-10T01:58:18.998Z,67.40
2018-06-10T01:58:50.739Z,68.10
2018-06-10T01:59:22.482Z,67.40
2018-06-10T01:59:54.283Z,67.10
2018-06-10T02:00:26.011Z,67.40
2018-06-10T02:00:57.748Z,67.40
2018-06-10T02:01:29.484Z,67.40
2018-06-10T02:02:01.209Z,67.50
2018-06-10T02:02:32.969Z,67.50
2018-06-10T02:03:04.698Z,67.50
2018-06-10T02:03:36.617Z,67.50
2018-06-10T02:04:08.384Z,67.50
2018-06-10T02:04:40.129Z,67.40
2018-06-10T02:05:11.917Z,67.40
2018-06-10T02:05:43.630Z,67.50
2018-06-10T02:06:15.357Z,67.50
2018-06-10T02:06:47.081Z,67.50
2018-06-10T02:07:18.857Z,67.50
2018-06-10T02:07:50.577Z,67.50
2018-06-10T02:08:22.503Z,67.50
2018-06-10T02:08:54.230Z,67.50
2018-06-10T02:09:25.981Z,67.30
2018-06-10T02:09:57.726Z,67.40
2018-06-10T02:10:29.572Z,67.40
2018-06-10T02:11:01.277Z,67.30
2018-06-10T02:11:33.554Z,67.30
2018-06-10T02:12:05.297Z,67.20
2018-06-10T02:12:37.022Z,67.10
2018-06-10T02:13:08.907Z,67.20
2018-06-10T02:13:40.642Z,67.20
2018-06-10T02:14:12.360Z,67.20
2018-06-10T02:14:44.101Z,67.20
2018-06-10T02:15:15.855Z,67.20
2018-06-10T02:15:47.603Z,67.00
2018-06-10T02:16:19.556Z,67.10
2018-06-10T02:16:51.310Z,67.10
2018-06-10T02:17:23.044Z,67.10
2018-06-10T02:17:54.794Z,67.10
2018-06-10T02:18:26.519Z,66.90
2018-06-10T02:18:58.274Z,66.80
2018-06-10T02:19:30.019Z,66.90
2018-06-10T02:20:01.759Z,66.90
2018-06-10T02:20:33.478Z,66.80
2018-06-10T02:21:05.379Z,66.80
2018-06-10T02:21:37.105Z,66.80
2018-06-10T02:22:08.837Z,66.80
2018-06-10T02:22:40.580Z,66.80
2018-06-10T02:23:12.423Z,66.80
2018-06-10T02:23:44.172Z,67.40
2018-06-10T02:24:15.908Z,66.70
2018-06-10T02:24:47.641Z,67.20
2018-06-10T02:25:19.376Z,66.70
2018-06-10T02:25:51.133Z,66.60
2018-06-10T02:26:22.870Z,66.60
2018-06-10T02:26:54.626Z,66.50
2018-06-10T02:27:26.371Z,66.60
2018-06-10T02:27:58.128Z,66.50
2018-06-10T02:28:29.892Z,67.10
2018-06-10T02:29:01.609Z,66.50
2018-06-10T02:29:33.339Z,66.40
2018-06-10T02:30:05.060Z,66.40
2018-06-10T02:30:36.869Z,66.30
2018-06-10T02:31:08.685Z,66.40
2018-06-10T02:31:40.409Z,66.40
2018-06-10T02:32:12.418Z,66.40
2018-06-10T02:32:44.125Z,66.30
2018-06-10T02:33:47.884Z,66.40
2018-06-10T02:34:19.677Z,66.50
2018-06-10T02:34:51.394Z,66.50
2018-06-10T02:35:23.137Z,66.50
2018-06-10T02:35:54.866Z,66.50
2018-06-10T02:36:26.594Z,66.50
2018-06-10T02:36:58.330Z,66.50
2018-06-10T02:37:30.112Z,66.50
2018-06-10T02:38:01.986Z,66.50
2018-06-10T02:38:33.744Z,66.40
2018-06-10T02:39:05.491Z,66.50
2018-06-10T02:39:37.193Z,66.50
2018-06-10T02:40:08.909Z,66.50
2018-06-10T02:40:40.657Z,66.50
2018-06-10T02:41:12.349Z,66.50
2018-06-10T02:41:44.074Z,66.40
2018-06-10T02:42:15.803Z,66.50
2018-06-10T02:42:47.542Z,66.50
2018-06-10T02:43:19.248Z,66.40
2018-06-10T02:43:50.975Z,66.40
2018-06-10T02:44:22.700Z,66.40
2018-06-10T02:44:54.415Z,66.40
2018-06-10T02:45:26.173Z,66.90
2018-06-10T02:45:57.910Z,66.40
2018-06-10T02:46:29.628Z,66.40
2018-06-10T02:47:01.373Z,66.30
2018-06-10T02:47:33.104Z,66.40
2018-06-10T02:48:04.834Z,66.40
2018-06-10T02:48:36.607Z,66.40
2018-06-10T02:49:08.302Z,66.40
2018-06-10T02:49:40.041Z,66.40
2018-06-10T02:50:11.778Z,66.50
2018-06-10T02:50:43.497Z,66.40
2018-06-10T02:51:15.251Z,66.30
2018-06-10T02:51:46.990Z,66.40
2018-06-10T02:52:18.723Z,66.30
2018-06-10T02:52:50.451Z,66.40
2018-06-10T02:53:22.192Z,66.20
2018-06-10T02:54:26.016Z,66.20
2018-06-10T02:54:57.784Z,66.20
2018-06-10T02:56:01.514Z,66.10
2018-06-10T02:56:33.237Z,66.10
2018-06-10T02:57:04.969Z,66.20
2018-06-10T02:57:36.699Z,66.10
2018-06-10T02:58:08.427Z,66.30
2018-06-10T02:58:40.178Z,66.10
2018-06-10T02:59:11.905Z,66.10
2018-06-10T02:59:43.620Z,66.10
2018-06-10T03:00:15.338Z,66.20
2018-06-10T03:00:47.097Z,66.20
2018-06-10T03:01:18.876Z,66.30
2018-06-10T03:01:50.591Z,66.30
2018-06-10T03:02:22.321Z,66.30
2018-06-10T03:02:54.050Z,66.30
2018-06-10T03:03:25.801Z,66.30
2018-06-10T03:03:57.530Z,66.30
2018-06-10T03:04:29.254Z,66.30
2018-06-10T03:05:00.981Z,66.30
2018-06-10T03:05:32.726Z,66.30
2018-06-10T03:06:04.443Z,66.20
2018-06-10T03:06:36.377Z,66.20
2018-06-10T03:07:08.107Z,66.30
2018-06-10T03:07:39.839Z,66.30
2018-06-10T03:08:11.552Z,66.30
2018-06-10T03:08:43.276Z,66.20
2018-06-10T03:09:15.010Z,66.20
2018-06-10T03:09:46.724Z,66.00
2018-06-10T03:10:18.452Z,66.20
2018-06-10T03:10:50.187Z,66.00
2018-06-10T03:11:21.914Z,66.00
2018-06-10T03:11:53.631Z,65.90
2018-06-10T03:12:25.368Z,65.90
2018-06-10T03:12:57.074Z,65.90
2018-06-10T03:13:28.808Z,66.70
2018-06-10T03:14:00.570Z,66.00
2018-06-10T03:14:32.275Z,65.90
2018-06-10T03:15:04.017Z,66.00
2018-06-10T03:15:35.745Z,66.00
2018-06-10T03:16:07.475Z,66.70
2018-06-10T03:16:39.197Z,65.90
2018-06-10T03:17:10.976Z,66.10
2018-06-10T03:17:42.685Z,66.00
2018-06-10T03:18:14.417Z,65.30
2018-06-10T03:18:46.146Z,65.90
2018-06-10T03:19:17.876Z,65.90
2018-06-10T03:19:49.596Z,65.90
2018-06-10T03:20:21.336Z,65.90
2018-06-10T03:20:53.060Z,65.80
2018-06-10T03:21:24.786Z,65.80
2018-06-10T03:21:56.545Z,66.60
2018-06-10T03:22:28.274Z,65.90
2018-06-10T03:23:00.011Z,65.90
2018-06-10T03:23:31.793Z,65.90
2018-06-10T03:24:03.526Z,65.90
2018-06-10T03:24:35.252Z,65.50
2018-06-10T03:25:06.991Z,66.70
2018-06-10T03:25:38.730Z,65.90
2018-06-10T03:26:10.445Z,66.00
2018-06-10T03:26:42.164Z,65.90
2018-06-10T03:27:13.892Z,65.80
2018-06-10T03:27:45.620Z,65.70
2018-06-10T03:28:17.362Z,65.80
2018-06-10T03:28:49.092Z,65.70
2018-06-10T03:29:20.825Z,65.60
2018-06-10T03:29:52.603Z,65.60
2018-06-10T03:30:24.319Z,65.60
2018-06-10T03:30:56.024Z,65.70
2018-06-10T03:31:27.936Z,65.70
2018-06-10T03:31:59.682Z,65.60
2018-06-10T03:32:31.393Z,65.70
2018-06-10T03:33:03.129Z,65.70
2018-06-10T03:33:34.868Z,65.80
2018-06-10T03:34:06.619Z,65.80
2018-06-10T03:34:38.344Z,65.80
2018-06-10T03:35:10.082Z,65.80
2018-06-10T03:35:41.815Z,65.80
2018-06-10T03:36:13.535Z,65.90
2018-06-10T03:36:45.268Z,65.80
2018-06-10T03:37:16.993Z,65.80
2018-06-10T03:37:48.732Z,65.70
2018-06-10T03:38:20.500Z,65.80
2018-06-10T03:38:52.233Z,65.90
2018-06-10T03:39:23.965Z,65.80
2018-06-10T03:39:55.696Z,65.80
2018-06-10T03:40:27.427Z,65.80
2018-06-10T03:40:59.242Z,65.80
2018-06-10T03:42:03.023Z,65.80
2018-06-10T03:42:34.750Z,65.80
2018-06-10T03:43:06.492Z,65.80
2018-06-10T03:43:38.210Z,65.80
2018-06-10T03:44:09.938Z,65.80
2018-06-10T03:44:41.661Z,65.80
2018-06-10T03:45:13.392Z,65.70
2018-06-10T03:45:45.193Z,65.10
2018-06-10T03:46:48.910Z,65.80
2018-06-10T03:47:20.649Z,65.80
2018-06-10T03:47:52.431Z,65.70
2018-06-10T03:48:24.188Z,65.70
2018-06-10T03:48:56.126Z,65.70
2018-06-10T03:49:27.891Z,65.70
2018-06-10T03:49:59.620Z,65.70
2018-06-10T03:50:31.345Z,65.70
2018-06-10T03:51:03.093Z,65.70
2018-06-10T03:51:34.808Z,65.70
2018-06-10T03:52:06.552Z,65.70
2018-06-10T03:52:38.306Z,65.60
2018-06-10T03:53:10.050Z,65.50
2018-06-10T03:53:41.773Z,65.50
2018-06-10T03:54:13.532Z,65.50
2018-06-10T03:54:45.250Z,65.60
2018-06-10T03:55:16.978Z,65.60
2018-06-10T03:55:48.702Z,65.70
2018-06-10T03:56:52.463Z,65.70
2018-06-10T03:57:24.253Z,65.80
2018-06-10T03:57:56.023Z,65.80
2018-06-10T03:58:27.796Z,65.80
2018-06-10T03:58:59.541Z,65.80
2018-06-10T03:59:31.298Z,65.70
2018-06-10T04:00:03.023Z,65.70
2018-06-10T04:00:34.756Z,65.80
2018-06-10T04:01:06.518Z,65.70
2018-06-10T04:01:38.232Z,65.90
2018-06-10T04:02:09.964Z,65.80
2018-06-10T04:02:41.724Z,65.70
2018-06-10T04:03:13.453Z,65.70
2018-06-10T04:03:45.188Z,65.60
2018-06-10T04:04:16.938Z,65.60
2018-06-10T04:04:48.673Z,65.60
2018-06-10T04:05:20.452Z,65.60
2018-06-10T04:05:52.184Z,66.30
2018-06-10T04:06:23.887Z,65.60
2018-06-10T04:06:55.606Z,65.50
2018-06-10T04:07:27.385Z,65.50
2018-06-10T04:07:59.106Z,65.50
2018-06-10T04:08:30.846Z,65.50
2018-06-10T04:09:02.596Z,65.40
2018-06-10T04:09:34.336Z,65.50
2018-06-10T04:10:06.062Z,65.50
2018-06-10T04:10:37.815Z,65.60
2018-06-10T04:11:09.530Z,65.60
2018-06-10T04:11:41.269Z,65.50
2018-06-10T04:12:13.008Z,65.50
2018-06-10T04:12:44.738Z,65.60
2018-06-10T04:13:16.465Z,65.50
2018-06-10T04:13:48.202Z,65.50
2018-06-10T04:14:19.904Z,65.00
2018-06-10T04:14:51.647Z,65.40
2018-06-10T04:15:23.374Z,65.40
2018-06-10T04:15:55.099Z,65.40
2018-06-10T04:16:26.850Z,65.40
2018-06-10T04:16:58.582Z,65.30
2018-06-10T04:17:30.315Z,65.30
2018-06-10T04:18:02.053Z,65.30
2018-06-10T04:18:33.820Z,65.30
2018-06-10T04:19:05.543Z,65.30
2018-06-10T04:19:37.534Z,66.00
2018-06-10T04:20:09.251Z,65.60
2018-06-10T04:20:40.974Z,65.50
2018-06-10T04:21:12.722Z,66.20
2018-06-10T04:21:44.473Z,65.60
2018-06-10T04:22:16.229Z,65.60
2018-06-10T04:22:47.965Z,65.60
2018-06-10T04:23:19.893Z,65.70
2018-06-10T04:23:51.628Z,65.70
2018-06-10T04:24:23.351Z,65.70
2018-06-10T04:24:55.109Z,65.70
2018-06-10T04:25:26.841Z,65.60
2018-06-10T04:25:58.569Z,65.60
2018-06-10T04:26:30.298Z,65.60
2018-06-10T04:27:02.037Z,65.50
2018-06-10T04:27:33.750Z,65.60
2018-06-10T04:28:05.482Z,65.50
2018-06-10T04:28:37.241Z,65.50
2018-06-10T04:29:08.972Z,65.50
2018-06-10T04:29:40.702Z,65.50
2018-06-10T04:30:12.449Z,65.70
2018-06-10T04:30:44.176Z,65.60
2018-06-10T04:31:15.888Z,65.60
2018-06-10T04:31:47.655Z,65.40
2018-06-10T04:32:19.373Z,65.50
2018-06-10T04:32:51.096Z,65.60
2018-06-10T04:33:22.825Z,65.00
2018-06-10T04:33:54.560Z,65.60
2018-06-10T04:34:26.391Z,65.70
2018-06-10T04:34:58.127Z,65.80
2018-06-10T04:35:29.851Z,65.80
2018-06-10T04:36:01.585Z,65.90
2018-06-10T04:36:33.314Z,65.80
2018-06-10T04:37:05.040Z,66.00
2018-06-10T04:37:36.763Z,65.90
2018-06-10T04:38:08.514Z,65.90
2018-06-10T04:38:40.237Z,66.00
2018-06-10T04:39:11.958Z,66.00
2018-06-10T04:39:43.690Z,65.90
2018-06-10T04:40:15.461Z,65.90
2018-06-10T04:40:47.174Z,65.90
2018-06-10T04:41:18.923Z,66.00
2018-06-10T04:41:50.633Z,66.50
2018-06-10T04:42:22.354Z,65.90
2018-06-10T04:42:54.091Z,65.90
2018-06-10T04:43:25.822Z,65.90
2018-06-10T04:43:57.538Z,66.20
2018-06-10T04:44:29.285Z,66.10
2018-06-10T04:45:01.010Z,66.90
2018-06-10T04:45:32.743Z,66.10
2018-06-10T04:46:04.484Z,66.20
2018-06-10T04:46:36.206Z,66.20
2018-06-10T04:47:07.963Z,66.30
2018-06-10T04:47:39.868Z,66.30
2018-06-10T04:48:11.617Z,66.30
2018-06-10T04:48:43.391Z,66.40
2018-06-10T04:49:47.103Z,66.20
2018-06-10T04:50:18.850Z,66.20
2018-06-10T04:50:50.585Z,66.40
2018-06-10T04:51:22.511Z,66.20
2018-06-10T04:51:54.250Z,66.10
2018-06-10T04:52:25.992Z,66.30
2018-06-10T04:52:57.741Z,66.10
2018-06-10T04:53:29.666Z,66.10
2018-06-10T04:54:01.401Z,66.10
2018-06-10T04:54:33.325Z,66.10
2018-06-10T04:55:05.049Z,66.10
2018-06-10T04:55:36.773Z,66.10
2018-06-10T04:56:08.500Z,66.20
2018-06-10T04:56:40.220Z,66.10
2018-06-10T04:57:43.970Z,66.20
2018-06-10T04:58:15.704Z,66.30
2018-06-10T04:58:47.445Z,66.20
2018-06-10T04:59:19.180Z,66.30
2018-06-10T04:59:50.910Z,66.20
2018-06-10T05:00:22.649Z,66.20
2018-06-10T05:00:54.382Z,66.30
2018-06-10T05:01:26.108Z,66.20
2018-06-10T05:01:57.863Z,66.20
2018-06-10T05:02:29.580Z,66.20
2018-06-10T05:03:01.307Z,66.10
2018-06-10T05:03:33.062Z,66.20
2018-06-10T05:04:04.814Z,66.20
2018-06-10T05:04:36.542Z,66.20
2018-06-10T05:05:08.324Z,66.20
2018-06-10T05:05:40.027Z,66.20
2018-06-10T05:06:11.746Z,66.20
2018-06-10T05:06:43.493Z,66.10
2018-06-10T05:07:47.229Z,66.30
2018-06-10T05:08:18.952Z,66.30
2018-06-10T05:08:50.710Z,66.20
2018-06-10T05:09:22.426Z,66.20
2018-06-10T05:09:54.149Z,66.20
2018-06-10T05:10:25.868Z,66.10
2018-06-10T05:10:57.632Z,65.80
2018-06-10T05:11:29.339Z,66.10
2018-06-10T05:12:01.074Z,66.10
2018-06-10T05:12:32.804Z,66.20
2018-06-10T05:13:04.535Z,66.10
2018-06-10T05:13:36.269Z,66.10
2018-06-10T05:14:08.038Z,66.20
2018-06-10T05:15:11.800Z,66.30
2018-06-10T05:16:15.518Z,66.50
2018-06-10T05:16:47.261Z,66.40
2018-06-10T05:17:18.989Z,66.40
2018-06-10T05:17:50.710Z,66.50
2018-06-10T05:18:22.441Z,66.50
2018-06-10T05:18:54.151Z,66.40
2018-06-10T05:19:25.878Z,66.50
2018-06-10T05:19:57.646Z,66.50
2018-06-10T05:20:29.544Z,66.40
2018-06-10T05:21:01.267Z,66.60
2018-06-10T05:21:33.006Z,66.60
2018-06-10T05:22:05.122Z,66.50
2018-06-10T05:22:36.851Z,66.60
2018-06-10T05:23:08.580Z,66.60
2018-06-10T05:23:40.314Z,66.50
2018-06-10T05:24:12.053Z,66.60
2018-06-10T05:24:44.050Z,66.70
2018-06-10T05:25:17.878Z,66.70
2018-06-10T05:25:50.833Z,66.70
2018-06-10T05:26:22.560Z,66.80
2018-06-10T05:26:54.289Z,66.80
2018-06-10T05:27:26.037Z,67.40
2018-06-10T05:27:57.767Z,66.70
2018-06-10T05:28:29.521Z,66.70
2018-06-10T05:29:01.265Z,66.70
2018-06-10T05:29:32.997Z,66.60
2018-06-10T05:30:04.718Z,66.60
2018-06-10T05:30:36.438Z,66.60
2018-06-10T05:31:08.162Z,66.60
2018-06-10T05:31:39.878Z,66.60
2018-06-10T05:32:11.695Z,66.60
2018-06-10T05:32:43.395Z,66.60
2018-06-10T05:33:15.121Z,66.60
2018-06-10T05:33:46.871Z,66.90
2018-06-10T05:34:18.574Z,66.70
2018-06-10T05:34:50.319Z,66.60
2018-06-10T05:35:22.035Z,66.60
2018-06-10T05:35:53.761Z,66.70
2018-06-10T05:36:57.518Z,66.70
2018-06-10T05:37:29.251Z,66.60
2018-06-10T05:38:00.996Z,66.60
2018-06-10T05:38:32.708Z,66.70
2018-06-10T05:39:04.437Z,66.60
2018-06-10T05:39:36.170Z,66.60
2018-06-10T05:40:07.909Z,66.50
2018-06-10T05:40:39.832Z,66.40
2018-06-10T05:41:11.569Z,66.40
2018-06-10T05:41:43.315Z,66.40
2018-06-10T05:42:15.056Z,66.40
2018-06-10T05:42:46.794Z,66.30
2018-06-10T05:43:18.533Z,66.30
2018-06-10T05:43:50.254Z,66.30
2018-06-10T05:44:21.995Z,66.30
2018-06-10T05:44:53.750Z,66.50
2018-06-10T05:45:25.503Z,66.70
2018-06-10T05:45:57.227Z,66.70
2018-06-10T05:46:28.973Z,66.50
2018-06-10T05:47:00.745Z,66.50
2018-06-10T05:47:32.597Z,66.40
2018-06-10T05:48:04.294Z,66.30
2018-06-10T05:48:36.017Z,66.20
2018-06-10T05:49:07.782Z,65.90
2018-06-10T05:49:39.507Z,66.10
2018-06-10T05:50:11.255Z,66.10
2018-06-10T05:50:43.007Z,66.00
2018-06-10T05:51:14.774Z,66.10
2018-06-10T05:51:46.691Z,66.10
2018-06-10T05:52:18.421Z,66.00
2018-06-10T05:52:50.142Z,66.00
2018-06-10T05:53:21.887Z,65.90
2018-06-10T05:53:53.618Z,65.90
2018-06-10T05:54:25.345Z,66.00
2018-06-10T05:55:29.055Z,66.00
2018-06-10T05:56:00.797Z,65.90
2018-06-10T05:56:32.527Z,65.90
2018-06-10T05:57:04.267Z,66.00
2018-06-10T05:57:36.014Z,65.90
2018-06-10T05:58:07.730Z,65.80
2018-06-10T05:58:39.496Z,65.90
2018-06-10T05:59:11.261Z,65.90
2018-06-10T05:59:43.002Z,65.90
2018-06-10T06:00:14.726Z,65.80
2018-06-10T06:00:46.458Z,65.80
2018-06-10T06:01:18.206Z,65.80
2018-06-10T06:01:50.001Z,65.80
2018-06-10T06:02:21.694Z,65.70
2018-06-10T06:03:25.427Z,66.60
2018-06-10T06:03:57.170Z,66.40
2018-06-10T06:04:29.191Z,65.80
2018-06-10T06:05:00.915Z,65.70
2018-06-10T06:05:32.842Z,65.80
2018-06-10T06:06:04.569Z,65.80
2018-06-10T06:06:36.342Z,65.90
2018-06-10T06:07:08.081Z,66.00
2018-06-10T06:07:39.812Z,65.90
2018-06-10T06:08:11.619Z,65.90
2018-06-10T06:08:43.352Z,66.00
2018-06-10T06:09:15.118Z,65.90
2018-06-10T06:09:46.857Z,65.80
2018-06-10T06:10:18.597Z,65.90
2018-06-10T06:10:50.326Z,65.90
2018-06-10T06:11:22.240Z,65.90
2018-06-10T06:11:53.962Z,65.90
2018-06-10T06:12:25.716Z,65.90
2018-06-10T06:12:57.456Z,65.80
2018-06-10T06:13:29.171Z,65.80
2018-06-10T06:14:00.916Z,65.90
2018-06-10T06:14:32.658Z,65.90
2018-06-10T06:15:04.398Z,65.80
2018-06-10T06:15:36.141Z,65.80
2018-06-10T06:16:07.915Z,65.80
2018-06-10T06:16:39.642Z,65.70
2018-06-10T06:17:11.362Z,65.70
2018-06-10T06:17:43.070Z,65.70
2018-06-10T06:18:14.800Z,65.60
2018-06-10T06:18:46.533Z,65.50
2018-06-10T06:19:18.254Z,65.50
2018-06-10T06:19:50.021Z,65.40
2018-06-10T06:20:21.734Z,65.40
2018-06-10T06:20:53.474Z,65.30
2018-06-10T06:21:25.207Z,65.20
2018-06-10T06:21:57.065Z,65.20
2018-06-10T06:22:28.799Z,65.20
2018-06-10T06:23:00.517Z,65.40
2018-06-10T06:23:32.242Z,65.30
2018-06-10T06:24:03.986Z,65.40
2018-06-10T06:24:35.697Z,65.40
2018-06-10T06:25:07.442Z,65.40
2018-06-10T06:25:39.185Z,65.40
2018-06-10T06:26:10.903Z,65.30
2018-06-10T06:26:42.622Z,65.50
2018-06-10T06:27:14.367Z,65.50
2018-06-10T06:27:46.083Z,65.50
2018-06-10T06:28:17.809Z,65.40
2018-06-10T06:28:49.549Z,65.50
2018-06-10T06:29:21.286Z,65.30
2018-06-10T06:29:53.041Z,65.40
2018-06-10T06:30:24.766Z,65.50
2018-06-10T06:30:56.558Z,65.40
2018-06-10T06:31:28.289Z,65.60
2018-06-10T06:32:00.018Z,65.70
2018-06-10T06:32:31.740Z,65.60
2018-06-10T06:33:03.479Z,65.70
2018-06-10T06:33:35.210Z,65.70
2018-06-10T06:34:06.935Z,65.70
2018-06-10T06:34:38.674Z,65.80
2018-06-10T06:35:10.428Z,65.70
2018-06-10T06:35:42.149Z,65.80
2018-06-10T06:36:13.865Z,65.70
2018-06-10T06:36:45.612Z,65.50
2018-06-10T06:37:17.349Z,65.60
2018-06-10T06:37:49.066Z,65.50
2018-06-10T06:38:20.815Z,65.50
2018-06-10T06:38:52.549Z,65.40
2018-06-10T06:39:24.303Z,65.40
2018-06-10T06:39:56.270Z,65.50
2018-06-10T06:40:28.189Z,65.50
2018-06-10T06:40:59.923Z,65.60
2018-06-10T06:41:31.657Z,65.70
2018-06-10T06:42:03.400Z,65.70
2018-06-10T06:42:35.132Z,65.80
2018-06-10T06:43:06.890Z,65.70
2018-06-10T06:43:38.696Z,65.80
2018-06-10T06:44:10.459Z,65.80
2018-06-10T06:44:42.177Z,65.90
2018-06-10T06:45:13.903Z,65.80
2018-06-10T06:45:45.829Z,65.80
2018-06-10T06:46:17.582Z,65.70
2018-06-10T06:46:49.296Z,65.70
2018-06-10T06:47:21.022Z,65.70
2018-06-10T06:47:52.850Z,65.80
2018-06-10T06:48:24.597Z,65.70
2018-06-10T06:48:56.374Z,65.80
2018-06-10T06:49:28.087Z,65.70
2018-06-10T06:49:59.813Z,65.60
2018-06-10T06:50:31.522Z,65.60
2018-06-10T06:51:03.252Z,65.50
2018-06-10T06:51:35.032Z,65.50
2018-06-10T06:52:06.788Z,65.40
2018-06-10T06:52:38.537Z,65.50
2018-06-10T06:53:10.442Z,65.50
2018-06-10T06:53:42.199Z,65.40
2018-06-10T06:54:13.927Z,65.40
2018-06-10T06:54:45.653Z,65.50
2018-06-10T06:55:17.379Z,65.50
2018-06-10T06:55:49.126Z,65.50
2018-06-10T06:56:20.850Z,65.40
2018-06-10T06:56:52.582Z,65.40
2018-06-10T06:57:24.330Z,65.40
2018-06-10T06:57:56.076Z,65.40
2018-06-10T06:58:27.985Z,65.40
2018-06-10T06:58:59.743Z,65.40
2018-06-10T06:59:31.527Z,65.50